Time;durP1;ratioP1;P1;durP2;ratioP2;P2;SDS_P1;SDS_P2;PMS_P1;PMS_P2;Temp;Humidity;BMP_temperature;BMP_pressure;BME280_temperature;BME280_humidity;BME280_pressure;Samples;Min_cycle;Max_cycle;Signal;HPM_P1;HPM_P2
2023/10/18 00:01:23;;;;;;;0.40;0.40;;;4.80;99.90;;;;;;5080583;27;20055;-66
2023/10/18 00:03:48;;;;;;;0.30;0.30;;;4.80;99.90;;;;;;5087270;28;20039;-66
2023/10/18 00:06:18;;;;;;;9.95;1.30;;;4.80;99.90;;;;;;5090692;28;20042;-67
2023/10/18 00:08:47;;;;;;;1.27;1.15;;;4.80;99.90;;;;;;5087149;28;20054;-67
2023/10/18 00:11:13;;;;;;;1.50;0.77;;;4.80;99.90;;;;;;5089142;27;20386;-66
2023/10/18 00:13:38;;;;;;;3.53;0.98;;;4.70;99.90;;;;;;5092217;27;20096;-67
2023/10/18 00:16:06;;;;;;;0.63;0.55;;;4.70;99.90;;;;;;5085973;28;20504;-67
2023/10/18 00:18:33;;;;;;;0.30;0.30;;;4.70;99.90;;;;;;5090233;27;20048;-67
2023/10/18 00:20:59;;;;;;;1.40;0.65;;;4.70;99.90;;;;;;5085642;28;20042;-67
2023/10/18 00:23:27;;;;;;;0.20;0.20;;;4.70;99.90;;;;;;5070793;28;20044;-67
2023/10/18 00:25:52;;;;;;;1.30;0.68;;;4.70;99.90;;;;;;5113941;27;20051;-66
2023/10/18 00:28:19;;;;;;;3.47;0.90;;;4.60;99.90;;;;;;5087025;27;20039;-67
2023/10/18 00:30:45;;;;;;;0.47;0.47;;;4.70;99.90;;;;;;5112294;27;20402;-67
2023/10/18 00:33:11;;;;;;;0.88;0.47;;;4.60;99.90;;;;;;5087727;28;20046;-67
2023/10/18 00:35:39;;;;;;;0.35;0.20;;;4.60;99.90;;;;;;5117621;27;20488;-67
2023/10/18 00:38:08;;;;;;;1.02;0.63;;;4.60;99.90;;;;;;5089553;28;20039;-67
2023/10/18 00:40:33;;;;;;;0.30;0.30;;;4.60;99.90;;;;;;5088377;27;20051;-67
2023/10/18 00:43:08;;;;;;;0.98;0.93;;;4.50;99.90;;;;;;5089601;28;20039;-67
2023/10/18 00:45:40;;;;;;;1.25;0.60;;;4.60;99.90;;;;;;5085743;27;20035;-66
2023/10/18 00:48:06;;;;;;;0.52;0.38;;;4.50;99.90;;;;;;5090653;27;20039;-66
2023/10/18 00:50:34;;;;;;;3.95;1.45;;;4.50;99.90;;;;;;5089875;28;20072;-66
2023/10/18 00:53:01;;;;;;;0.85;0.65;;;4.50;99.90;;;;;;5120159;27;20046;-67
2023/10/18 00:55:26;;;;;;;0.85;0.85;;;4.50;99.90;;;;;;5091235;27;20035;-67
2023/10/18 00:57:52;;;;;;;0.47;0.32;;;4.50;99.90;;;;;;5082745;28;20032;-67
2023/10/18 01:00:24;;;;;;;2.22;0.88;;;4.50;99.90;;;;;;5086442;27;20046;-67
2023/10/18 01:02:52;;;;;;;0.30;0.30;;;4.50;99.90;;;;;;5085249;28;20047;-67
2023/10/18 01:05:18;;;;;;;1.85;1.65;;;4.40;99.90;;;;;;5081694;27;20039;-67
2023/10/18 01:07:47;;;;;;;1.52;1.02;;;4.50;99.90;;;;;;5090980;28;20089;-67
2023/10/18 01:10:12;;;;;;;1.05;0.57;;;4.50;99.90;;;;;;5112001;27;20046;-67
2023/10/18 01:12:38;;;;;;;10.15;2.17;;;4.50;99.90;;;;;;5118035;27;20138;-67
2023/10/18 01:15:12;;;;;;;1.85;0.73;;;4.40;99.90;;;;;;5089383;27;20067;-67
2023/10/18 01:17:43;;;;;;;6.22;1.85;;;4.40;99.90;;;;;;5086190;27;20039;-66
2023/10/18 01:22:53;;;;;;;1.40;1.33;;;4.40;99.90;;;;;;5117125;27;20036;-67
2023/10/18 01:25:20;;;;;;;1.63;1.52;;;4.50;99.90;;;;;;5079332;28;20046;-66
2023/10/18 01:27:45;;;;;;;1.45;0.75;;;4.40;99.90;;;;;;5090402;28;20490;-67
2023/10/18 01:30:15;;;;;;;1.70;1.10;;;4.40;99.90;;;;;;5088703;28;20043;-67
2023/10/18 01:32:40;;;;;;;5.68;0.63;;;4.40;99.90;;;;;;5089265;27;20039;-66
2023/10/18 01:35:06;;;;;;;5.35;1.90;;;4.40;99.90;;;;;;5085419;28;20031;-68
2023/10/18 01:37:32;;;;;;;5.15;2.60;;;4.40;99.90;;;;;;5082543;28;20058;-67
2023/10/18 01:40:19;;;;;;;3.17;0.88;;;4.40;99.90;;;;;;5088522;28;20036;-67
2023/10/18 01:42:43;;;;;;;1.00;0.98;;;4.40;99.90;;;;;;5084720;28;20027;-67
2023/10/18 01:45:09;;;;;;;2.67;1.42;;;4.50;99.90;;;;;;5082480;28;20046;-66
2023/10/18 01:47:38;;;;;;;4.60;2.38;;;4.50;99.90;;;;;;5119911;27;20039;-68
2023/10/18 01:50:04;;;;;;;1.88;1.02;;;4.50;99.90;;;;;;5078311;27;20046;-67
2023/10/18 01:52:30;;;;;;;2.15;1.05;;;4.50;99.90;;;;;;5086327;28;20035;-67
2023/10/18 01:54:55;;;;;;;2.45;1.45;;;4.50;99.90;;;;;;5088931;28;20046;-68
2023/10/18 01:57:21;;;;;;;5.78;1.15;;;4.60;99.90;;;;;;5080851;28;20074;-67
2023/10/18 01:59:48;;;;;;;4.28;1.90;;;4.50;99.90;;;;;;5081420;28;20048;-67
2023/10/18 02:02:15;;;;;;;4.72;1.35;;;4.60;99.90;;;;;;5116708;27;20036;-69
2023/10/18 02:04:41;;;;;;;0.82;0.82;;;4.60;99.90;;;;;;5082189;28;20048;-66
2023/10/18 02:07:07;;;;;;;2.28;1.92;;;4.60;99.90;;;;;;5083431;28;20055;-67
2023/10/18 02:09:44;;;;;;;2.55;1.85;;;4.60;99.90;;;;;;5081837;28;20047;-67
2023/10/18 02:12:09;;;;;;;2.47;1.95;;;4.60;99.90;;;;;;5118386;28;20486;-67
2023/10/18 02:14:38;;;;;;;1.63;1.50;;;4.60;99.90;;;;;;5083594;28;20054;-67
2023/10/18 02:17:09;;;;;;;1.25;1.13;;;4.60;99.90;;;;;;5101730;28;20110;-66
2023/10/18 02:19:36;;;;;;;6.50;2.22;;;4.60;99.90;;;;;;5082697;28;20115;-66
2023/10/18 02:22:07;;;;;;;2.83;1.02;;;4.60;99.90;;;;;;5083631;28;20035;-66
2023/10/18 02:24:33;;;;;;;4.88;1.67;;;4.60;99.90;;;;;;5083845;28;20098;-66
2023/10/18 02:27:02;;;;;;;3.92;1.67;;;4.60;99.90;;;;;;5085054;28;20043;-66
2023/10/18 02:29:27;;;;;;;2.05;1.58;;;4.60;99.90;;;;;;5082024;28;20082;-67
2023/10/18 02:31:57;;;;;;;4.63;2.13;;;4.60;99.90;;;;;;5080765;28;20067;-66
2023/10/18 02:34:26;;;;;;;2.58;1.05;;;4.60;99.90;;;;;;5079664;28;20067;-67
2023/10/18 02:36:55;;;;;;;1.65;0.95;;;4.60;99.90;;;;;;5083879;28;20398;-66
2023/10/18 02:39:27;;;;;;;0.60;0.60;;;4.60;99.90;;;;;;5083364;28;20490;-67
2023/10/18 02:41:56;;;;;;;2.80;1.27;;;4.50;99.90;;;;;;5104262;27;20052;-66
2023/10/18 02:44:22;;;;;;;2.15;0.95;;;4.60;99.90;;;;;;5089555;28;20832;-66
2023/10/18 02:46:52;;;;;;;2.50;1.70;;;4.60;99.90;;;;;;5087393;27;20047;-66
2023/10/18 02:49:18;;;;;;;3.72;1.67;;;4.60;99.90;;;;;;5085374;27;20342;-66
2023/10/18 02:51:47;;;;;;;3.17;1.70;;;4.50;99.90;;;;;;5087265;27;20043;-66
2023/10/18 02:54:16;;;;;;;0.80;0.57;;;4.50;99.90;;;;;;5115524;27;20101;-66
2023/10/18 02:56:53;;;;;;;2.28;1.48;;;4.50;99.90;;;;;;5085069;28;20482;-66
2023/10/18 02:59:24;;;;;;;1.20;0.52;;;4.50;99.90;;;;;;5079866;28;20035;-66
2023/10/18 03:01:57;;;;;;;3.43;2.10;;;4.50;99.90;;;;;;5087834;28;20121;-66
2023/10/18 03:04:23;;;;;;;;;;;4.40;99.90;;;;;;5082527;28;20308;-66
2023/10/18 03:06:52;;;;;;;1.23;0.75;;;4.50;99.90;;;;;;5108064;27;20006;-66
2023/10/18 03:09:26;;;;;;;2.83;1.17;;;4.50;99.90;;;;;;5087261;28;20024;-66
2023/10/18 03:11:56;;;;;;;2.03;1.85;;;4.50;99.90;;;;;;5082620;27;20043;-67
2023/10/18 03:17:24;;;;;;;0.80;0.80;;;4.50;99.90;;;;;;5084589;28;20055;-67
2023/10/18 03:19:53;;;;;;;0.73;0.73;;;4.50;99.90;;;;;;5084454;28;20478;-66
2023/10/18 03:22:23;;;;;;;1.30;1.20;;;4.40;99.90;;;;;;5088312;28;20044;-66
2023/10/18 03:24:55;;;;;;;2.15;2.03;;;4.40;99.90;;;;;;5085207;28;20059;-67
2023/10/18 03:27:29;;;;;;;2.30;1.48;;;4.50;99.90;;;;;;5118070;27;20101;-66
2023/10/18 03:29:58;;;;;;;4.68;3.33;;;4.40;99.90;;;;;;5084536;28;20067;-66
2023/10/18 03:32:24;;;;;;;2.00;1.60;;;4.40;99.90;;;;;;5086535;27;20557;-66
2023/10/18 03:34:52;;;;;;;4.45;1.27;;;4.50;99.90;;;;;;5085504;28;20047;-67
2023/10/18 03:37:21;;;;;;;2.05;1.75;;;4.50;99.90;;;;;;5086127;28;20081;-66
2023/10/18 03:39:52;;;;;;;1.13;1.00;;;4.50;99.90;;;;;;5084581;28;20032;-66
2023/10/18 03:42:31;;;;;;;1.00;0.60;;;4.50;99.90;;;;;;5083695;28;20060;-66
2023/10/18 03:44:58;;;;;;;3.83;1.20;;;4.50;99.90;;;;;;5083198;28;20126;-66
2023/10/18 03:47:24;;;;;;;2.25;1.73;;;4.50;99.90;;;;;;5115703;27;20044;-66
2023/10/18 03:49:53;;;;;;;0.20;0.20;;;4.50;99.90;;;;;;5081910;28;20353;-67
2023/10/18 03:52:21;;;;;;;3.85;0.98;;;4.50;99.90;;;;;;5084142;27;20071;-66
2023/10/18 03:57:28;;;;;;;0.35;0.35;;;4.50;99.90;;;;;;5116747;27;20089;-66
2023/10/18 04:00:28;;;;;;;0.38;0.38;;;4.50;99.90;;;;;;5115275;27;20060;-66
2023/10/18 04:02:46;;;;;;;2.53;1.50;;;4.40;99.90;;;;;;5081428;28;20059;-66
2023/10/18 04:05:30;;;;;;;2.83;0.85;;;4.50;99.90;;;;;;5088706;28;20039;-66
2023/10/18 04:07:55;;;;;;;1.52;1.42;;;4.50;99.90;;;;;;5115681;27;20078;-66
2023/10/18 04:10:24;;;;;;;0.40;0.40;;;4.50;99.90;;;;;;5119407;27;20063;-66
2023/10/18 04:12:50;;;;;;;6.82;0.73;;;4.50;99.90;;;;;;5083712;28;20051;-66
2023/10/18 04:15:22;;;;;;;0.70;0.60;;;4.50;99.90;;;;;;5087658;27;20478;-66
2023/10/18 04:18:03;;;;;;;1.85;1.20;;;4.50;99.90;;;;;;5069108;28;20044;-66
2023/10/18 04:20:31;;;;;;;0.95;0.68;;;4.50;99.90;;;;;;5119965;27;20050;-67
2023/10/18 04:22:57;;;;;;;3.97;1.77;;;4.50;99.90;;;;;;5116246;27;20496;-66
2023/10/18 04:25:32;;;;;;;0.82;0.82;;;4.50;99.90;;;;;;5081643;28;20051;-66
2023/10/18 04:27:59;;;;;;;0.80;0.80;;;4.60;99.90;;;;;;5115701;27;20428;-66
2023/10/18 04:30:25;;;;;;;1.48;1.27;;;4.60;99.90;;;;;;5083033;28;20047;-67
2023/10/18 04:32:54;;;;;;;0.95;0.90;;;4.60;99.90;;;;;;5116543;27;20050;-66
2023/10/18 04:35:29;;;;;;;2.92;1.02;;;4.60;99.90;;;;;;5085032;27;20035;-66
2023/10/18 04:37:55;;;;;;;2.55;1.75;;;4.60;99.90;;;;;;5068626;28;20088;-66
2023/10/18 04:40:28;;;;;;;6.97;1.65;;;4.70;99.90;;;;;;5083674;27;20042;-67
2023/10/18 04:42:57;;;;;;;2.78;1.58;;;4.70;99.90;;;;;;5083122;28;20031;-66
2023/10/18 04:45:23;;;;;;;2.88;1.23;;;4.60;99.90;;;;;;5085675;27;20150;-66
2023/10/18 04:47:49;;;;;;;1.65;0.93;;;4.70;99.90;;;;;;5114182;27;20079;-67
2023/10/18 04:50:29;;;;;;;9.77;1.38;;;4.70;99.90;;;;;;5082588;28;20039;-66
2023/10/18 04:52:57;;;;;;;12.50;2.22;;;4.70;99.90;;;;;;5086336;28;20059;-66
2023/10/18 04:55:25;;;;;;;2.67;1.77;;;4.70;99.90;;;;;;5090298;27;20402;-66
2023/10/18 04:57:53;;;;;;;2.17;1.17;;;4.80;99.90;;;;;;5113719;27;20040;-66
2023/10/18 05:00:34;;;;;;;1.15;1.15;;;4.70;99.90;;;;;;5118105;27;20032;-66
2023/10/18 05:03:02;;;;;;;1.08;0.85;;;4.80;99.90;;;;;;5084514;28;20084;-66
2023/10/18 05:05:27;;;;;;;0.52;0.52;;;4.80;99.90;;;;;;5084851;28;20049;-66
2023/10/18 05:07:54;;;;;;;2.08;1.42;;;4.80;99.90;;;;;;5084763;27;20039;-66
2023/10/18 05:10:21;;;;;;;5.35;1.15;;;4.80;99.90;;;;;;5103906;27;20059;-67
2023/10/18 05:12:48;;;;;;;5.78;1.17;;;4.80;99.90;;;;;;5082864;28;20043;-68
2023/10/18 05:15:17;;;;;;;4.05;1.85;;;4.80;99.90;;;;;;5119429;27;20052;-66
2023/10/18 05:17:43;;;;;;;0.95;0.70;;;4.80;99.90;;;;;;5077553;28;20036;-67
2023/10/18 05:22:47;;;;;;;1.90;1.77;;;4.80;99.90;;;;;;5085076;28;20040;-66
2023/10/18 05:28:00;;;;;;;3.55;1.30;;;4.80;99.90;;;;;;5083826;28;20050;-67
2023/10/18 05:33:47;;;;;;;4.97;1.38;;;4.80;99.90;;;;;;5083268;27;20435;-66
2023/10/18 05:41:35;;;;;;;3.65;1.92;;;4.90;99.90;;;;;;5118601;27;20123;-66
2023/10/18 05:44:00;;;;;;;1.80;1.33;;;4.90;99.90;;;;;;5116691;27;20089;-66
2023/10/18 05:46:33;;;;;;;1.92;1.77;;;4.90;99.90;;;;;;5083726;28;20032;-67
2023/10/18 05:49:13;;;;;;;8.55;2.90;;;4.90;99.90;;;;;;5081781;28;20097;-66
2023/10/18 05:51:39;;;;;;;2.58;1.40;;;4.90;99.90;;;;;;5068186;28;20036;-67
2023/10/18 05:54:05;;;;;;;5.10;1.95;;;4.90;99.90;;;;;;5082756;27;20131;-67
2023/10/18 05:56:34;;;;;;;3.97;2.20;;;4.90;99.90;;;;;;5066418;28;20096;-66
2023/10/18 06:01:58;;;;;;;1.85;1.73;;;5.00;99.90;;;;;;5090828;28;20136;-66
2023/10/18 06:04:24;;;;;;;3.97;2.72;;;5.00;99.90;;;;;;5101472;28;20043;-66
2023/10/18 06:07:10;;;;;;;3.45;1.65;;;4.90;99.90;;;;;;5117441;27;20138;-67
2023/10/18 06:09:58;;;;;;;2.92;1.90;;;4.90;99.90;;;;;;5080735;28;20105;-68
2023/10/18 06:12:27;;;;;;;2.17;1.77;;;4.90;99.90;;;;;;5080294;28;20044;-68
2023/10/18 06:14:53;;;;;;;1.25;1.15;;;4.90;99.90;;;;;;5087767;28;20107;-67
2023/10/18 06:17:22;;;;;;;2.38;2.08;;;4.90;99.90;;;;;;5126661;27;20118;-67
2023/10/18 06:19:50;;;;;;;2.67;2.28;;;4.90;99.90;;;;;;5115596;27;20455;-67
2023/10/18 06:22:29;;;;;;;5.47;2.75;;;4.90;99.90;;;;;;5083920;28;20036;-67
2023/10/18 06:25:00;;;;;;;3.20;1.30;;;4.90;99.90;;;;;;5085044;28;20076;-67
2023/10/18 06:27:25;;;;;;;3.15;1.38;;;4.90;99.90;;;;;;5093886;28;20071;-67
2023/10/18 06:29:53;;;;;;;0.20;0.20;;;4.90;99.90;;;;;;5091465;28;20082;-66
2023/10/18 06:32:22;;;;;;;1.35;1.25;;;4.90;99.90;;;;;;5093899;28;20059;-68
2023/10/18 06:34:55;;;;;;;5.32;2.22;;;5.00;99.90;;;;;;5099930;28;20050;-66
2023/10/18 06:37:31;;;;;;;1.77;1.65;;;5.00;99.90;;;;;;5084805;28;20411;-66
2023/10/18 06:39:59;;;;;;;1.40;1.02;;;5.00;99.90;;;;;;5127060;27;20039;-67
2023/10/18 06:42:27;;;;;;;2.05;1.23;;;5.00;99.90;;;;;;5125691;27;20043;-68
2023/10/18 06:44:54;;;;;;;1.67;1.52;;;5.10;99.90;;;;;;5108547;27;20058;-67
2023/10/18 06:47:30;;;;;;;1.00;0.93;;;5.10;99.90;;;;;;5091098;28;20367;-67
2023/10/18 06:49:58;;;;;;;3.00;1.85;;;5.10;99.90;;;;;;5088877;28;20047;-67
2023/10/18 06:52:28;;;;;;;0.82;0.82;;;5.10;99.90;;;;;;5085179;27;20067;-67
2023/10/18 06:54:55;;;;;;;3.97;1.90;;;5.20;99.90;;;;;;5126115;27;20040;-66
2023/10/18 06:57:27;;;;;;;5.22;1.08;;;5.20;99.90;;;;;;5090534;28;20077;-67
2023/10/18 06:59:54;;;;;;;3.05;1.60;;;5.20;99.90;;;;;;5118896;27;20110;-67
2023/10/18 07:02:26;;;;;;;5.13;1.17;;;5.30;99.90;;;;;;5091235;28;20118;-66
2023/10/18 07:04:56;;;;;;;1.45;1.25;;;5.30;99.90;;;;;;5100825;28;20039;-67
2023/10/18 07:07:23;;;;;;;2.55;0.95;;;5.30;99.90;;;;;;5086702;27;20051;-66
2023/10/18 07:09:52;;;;;;;3.33;2.35;;;5.40;99.90;;;;;;5116628;27;20547;-67
2023/10/18 07:12:19;;;;;;;1.98;1.27;;;5.40;99.90;;;;;;5078965;28;20046;-67
2023/10/18 07:14:46;;;;;;;2.05;1.58;;;5.50;99.90;;;;;;5091647;28;20118;-68
2023/10/18 07:17:14;;;;;;;1.27;0.85;;;5.50;99.90;;;;;;5088776;28;20036;-66
2023/10/18 07:19:49;;;;;;;6.18;1.15;;;5.60;99.90;;;;;;5089380;28;20417;-68
2023/10/18 07:22:18;;;;;;;2.00;1.40;;;5.60;99.90;;;;;;5117056;27;20044;-66
2023/10/18 07:24:53;;;;;;;3.28;1.55;;;5.70;99.90;;;;;;5112126;28;20081;-67
2023/10/18 07:27:20;;;;;;;0.35;0.35;;;5.70;99.90;;;;;;5123235;27;20105;-68
2023/10/18 07:29:49;;;;;;;3.80;1.15;;;5.70;99.90;;;;;;5094340;28;20035;-66
2023/10/18 07:32:20;;;;;;;1.55;0.85;;;5.80;99.90;;;;;;5087317;28;20248;-68
2023/10/18 07:34:48;;;;;;;2.58;1.20;;;5.80;99.90;;;;;;5085791;28;20039;-67
2023/10/18 07:37:17;;;;;;;2.53;1.55;;;5.90;99.90;;;;;;5083397;28;20114;-67
2023/10/18 07:39:49;;;;;;;5.05;2.47;;;5.90;99.90;;;;;;5091048;28;20034;-68
2023/10/18 07:42:18;;;;;;;4.45;1.35;;;6.00;99.90;;;;;;5113807;27;20036;-67
2023/10/18 07:44:46;;;;;;;4.05;1.52;;;6.00;99.90;;;;;;5092749;28;20086;-67
2023/10/18 07:47:17;;;;;;;1.75;0.93;;;6.10;99.90;;;;;;5093677;28;20040;-68
2023/10/18 07:49:45;;;;;;;4.00;2.08;;;6.10;99.90;;;;;;5069599;27;20363;-68
2023/10/18 07:52:10;;;;;;;1.20;0.98;;;6.20;99.90;;;;;;5090764;28;20557;-68
2023/10/18 07:54:37;;;;;;;2.83;2.25;;;6.20;99.90;;;;;;5089551;28;20118;-68
2023/10/18 07:57:02;;;;;;;2.78;1.02;;;6.30;99.90;;;;;;5091256;28;21948;-69
2023/10/18 07:59:28;;;;;;;4.45;0.95;;;6.30;99.90;;;;;;5093589;28;20036;-69
2023/10/18 08:02:19;;;;;;;1.33;1.00;;;6.40;99.90;;;;;;5084492;28;20046;-67
2023/10/18 08:04:47;;;;;;;1.70;1.60;;;6.40;99.90;;;;;;5120450;27;20058;-68
2023/10/18 08:07:20;;;;;;;3.70;1.58;;;6.50;99.90;;;;;;5086090;28;20100;-67
2023/10/18 08:09:57;;;;;;;2.10;1.38;;;6.60;99.90;;;;;;5092384;27;20363;-69
2023/10/18 08:12:30;;;;;;;2.30;0.93;;;6.70;99.90;;;;;;5112660;27;20097;-68
2023/10/18 08:14:56;;;;;;;2.10;1.52;;;6.70;99.90;;;;;;5094751;28;20180;-66
2023/10/18 08:17:42;;;;;;;3.15;1.25;;;6.80;99.90;;;;;;5089967;28;20047;-68
2023/10/18 08:22:50;;;;;;;6.38;1.60;;;6.90;99.90;;;;;;5077694;28;20075;-68
2023/10/18 08:25:29;;;;;;;1.17;0.98;;;7.00;99.90;;;;;;5093485;28;20055;-67
2023/10/18 08:27:56;;;;;;;2.20;1.42;;;7.10;99.90;;;;;;5115499;27;20405;-68
2023/10/18 08:30:38;;;;;;;3.83;0.65;;;7.10;99.90;;;;;;5088683;28;20043;-70
2023/10/18 08:33:05;;;;;;;3.00;1.38;;;7.20;99.90;;;;;;5090694;28;20165;-68
2023/10/18 08:35:31;;;;;;;4.28;1.67;;;7.20;99.90;;;;;;5128257;27;20093;-69
2023/10/18 08:38:01;;;;;;;7.03;1.23;;;7.30;99.90;;;;;;5079253;28;20395;-69
2023/10/18 08:43:12;;;;;;;0.70;0.70;;;7.40;99.90;;;;;;5091498;28;20075;-69
2023/10/18 08:45:45;;;;;;;1.63;1.52;;;7.50;99.90;;;;;;5116647;27;20055;-69
2023/10/18 08:48:16;;;;;;;2.60;2.35;;;7.50;99.90;;;;;;5085759;28;20049;-70
2023/10/18 08:50:42;;;;;;;0.68;0.68;;;7.70;99.90;;;;;;5126729;27;20046;-70
2023/10/18 08:53:10;;;;;;;2.30;1.70;;;7.70;99.90;;;;;;5090104;28;20059;-68
2023/10/18 08:55:45;;;;;;;6.13;2.30;;;7.80;99.90;;;;;;5093622;28;20058;-69
2023/10/18 08:58:22;;;;;;;3.75;1.30;;;7.90;99.90;;;;;;5090551;28;20028;-71
2023/10/18 09:03:24;;;;;;;1.73;0.73;;;8.00;99.90;;;;;;5086253;28;20050;-70
2023/10/18 09:06:03;;;;;;;0.95;0.82;;;8.10;99.90;;;;;;5093610;28;20428;-68
2023/10/18 09:08:29;;;;;;;2.40;1.60;;;8.10;99.90;;;;;;5090240;28;20410;-70
2023/10/18 09:10:55;;;;;;;2.65;1.25;;;8.20;99.90;;;;;;5089098;28;20093;-70
2023/10/18 09:16:01;;;;;;;2.70;1.27;;;8.30;99.90;;;;;;5093480;28;20036;-70
2023/10/18 09:18:30;;;;;;;5.63;1.70;;;8.40;99.90;;;;;;5114705;27;20043;-69
2023/10/18 09:21:07;;;;;;;4.43;1.25;;;8.50;99.90;;;;;;5072265;28;20040;-67
2023/10/18 09:23:33;;;;;;;1.55;0.75;;;8.50;99.90;;;;;;5116731;27;20486;-67
2023/10/18 09:28:35;;;;;;;2.35;1.15;;;8.60;99.90;;;;;;5081632;28;20108;-68
2023/10/18 09:31:11;;;;;;;0.90;0.65;;;8.70;99.90;;;;;;5088127;28;20044;-67
2023/10/18 09:33:48;;;;;;;2.22;1.92;;;8.80;99.90;;;;;;5083497;28;20043;-69
2023/10/18 09:36:19;;;;;;;2.05;1.05;;;8.80;99.90;;;;;;5112067;27;20115;-70
2023/10/18 09:38:49;;;;;;;0.50;0.50;;;8.80;99.90;;;;;;5076549;27;20364;-70
2023/10/18 09:41:15;;;;;;;1.98;1.77;;;8.90;99.90;;;;;;5083338;28;20123;-69
2023/10/18 09:43:41;;;;;;;0.80;0.75;;;8.90;99.90;;;;;;5120831;27;20104;-68
2023/10/18 09:46:08;;;;;;;1.35;0.77;;;9.00;99.90;;;;;;5090227;28;20043;-70
2023/10/18 09:48:38;;;;;;;2.30;1.23;;;9.00;99.90;;;;;;5087255;28;20397;-68
2023/10/18 09:51:08;;;;;;;1.73;0.98;;;9.00;99.90;;;;;;5090179;28;20039;-68
2023/10/18 09:53:41;;;;;;;2.53;1.60;;;9.00;99.90;;;;;;5088395;28;20045;-67
2023/10/18 09:56:08;;;;;;;0.93;0.88;;;9.10;99.90;;;;;;5123481;27;20371;-68
2023/10/18 09:58:41;;;;;;;2.90;1.80;;;9.10;99.90;;;;;;5086915;28;20046;-67
2023/10/18 10:03:52;;;;;;;2.70;1.50;;;9.10;99.90;;;;;;5088252;28;20050;-70
2023/10/18 10:06:25;;;;;;;1.60;1.02;;;9.20;99.90;;;;;;5119612;27;20044;-67
2023/10/18 10:09:11;;;;;;;1.23;1.15;;;9.20;99.90;;;;;;5076155;28;20047;-69
2023/10/18 10:11:43;;;;;;;1.63;1.30;;;9.30;99.90;;;;;;5081152;28;20302;-68
2023/10/18 10:14:10;;;;;;;5.78;2.13;;;9.30;99.90;;;;;;5084909;28;20101;-68
2023/10/18 10:16:39;;;;;;;1.77;1.52;;;9.40;99.90;;;;;;5114662;28;20135;-68
2023/10/18 10:19:11;;;;;;;0.65;0.65;;;9.40;99.90;;;;;;5082455;28;20046;-69
2023/10/18 10:21:37;;;;;;;1.10;0.77;;;9.50;99.90;;;;;;5084326;28;20340;-70
2023/10/18 10:24:29;;;;;;;6.20;1.60;;;9.60;99.90;;;;;;5086835;28;20040;-71
2023/10/18 10:26:52;;;;;;;3.08;2.58;;;9.60;99.90;;;;;;5086018;28;20043;-68
2023/10/18 10:29:33;;;;;;;1.35;1.00;;;9.60;99.90;;;;;;5089107;28;20108;-70
2023/10/18 10:32:06;;;;;;;4.40;2.20;;;9.70;99.90;;;;;;5084773;28;20096;-69
2023/10/18 10:34:38;;;;;;;0.45;0.45;;;9.80;99.90;;;;;;5086449;28;20482;-69
2023/10/18 10:37:18;;;;;;;0.60;0.60;;;9.80;99.90;;;;;;5077552;28;20032;-71
2023/10/18 10:39:49;;;;;;;1.55;1.05;;;9.90;99.90;;;;;;5084992;28;20044;-67
2023/10/18 10:42:41;;;;;;;2.08;1.00;;;9.90;99.90;;;;;;5089830;28;20092;-67
2023/10/18 10:45:23;;;;;;;6.00;0.95;;;10.00;99.90;;;;;;5097249;28;20046;-69
2023/10/18 10:47:50;;;;;;;1.73;1.23;;;10.10;99.90;;;;;;5113023;28;20075;-68
2023/10/18 10:50:37;;;;;;;2.10;0.98;;;10.10;99.90;;;;;;5070577;28;20130;-68
2023/10/18 10:53:05;;;;;;;1.90;1.15;;;10.20;99.90;;;;;;5104919;28;20115;-68
2023/10/18 10:55:34;;;;;;;2.25;0.40;;;10.30;99.90;;;;;;5106713;28;20048;-69
2023/10/18 10:58:15;;;;;;;7.25;2.10;;;10.30;99.90;;;;;;5100662;28;20051;-69
2023/10/18 11:01:07;;;;;;;2.67;0.82;;;10.30;99.90;;;;;;5072727;28;20104;-68
2023/10/18 11:03:55;;;;;;;1.20;1.15;;;10.30;99.90;;;;;;5086419;27;20040;-69
2023/10/18 11:06:25;;;;;;;3.22;1.00;;;10.40;99.90;;;;;;5113273;27;20043;-69
2023/10/18 11:08:54;;;;;;;5.10;1.75;;;10.40;99.90;;;;;;5084690;28;20089;-67
2023/10/18 11:11:21;;;;;;;1.40;1.33;;;10.40;99.90;;;;;;5084200;28;20035;-68
2023/10/18 11:13:50;;;;;;;1.50;1.40;;;10.40;99.90;;;;;;5114751;27;20118;-67
2023/10/18 11:16:22;;;;;;;1.92;1.10;;;10.40;99.90;;;;;;5081520;27;20038;-66
2023/10/18 11:18:52;;;;;;;3.45;1.45;;;10.40;99.90;;;;;;5083979;28;20093;-67
2023/10/18 11:21:21;;;;;;;4.63;2.45;;;10.40;99.90;;;;;;5082473;28;20136;-68
2023/10/18 11:24:10;;;;;;;0.68;0.68;;;10.40;99.90;;;;;;5088942;28;20243;-68
2023/10/18 11:26:40;;;;;;;1.15;1.13;;;10.50;99.90;;;;;;5082487;28;20043;-68
2023/10/18 11:29:06;;;;;;;7.13;1.83;;;10.40;99.90;;;;;;5124003;27;20040;-67
2023/10/18 11:31:32;;;;;;;3.20;1.88;;;10.50;99.90;;;;;;5083500;28;20036;-69
2023/10/18 11:34:08;;;;;;;1.58;1.02;;;10.50;99.90;;;;;;5083067;28;20444;-65
2023/10/18 11:36:39;;;;;;;8.02;2.33;;;10.50;99.90;;;;;;5088440;28;20063;-67
2023/10/18 11:41:41;;;;;;;3.13;1.25;;;10.60;99.90;;;;;;5082437;28;20152;-68
2023/10/18 11:44:16;;;;;;;1.27;0.68;;;10.70;99.90;;;;;;5122407;27;20047;-68
2023/10/18 11:46:50;;;;;;;0.20;0.20;;;10.80;99.90;;;;;;5088100;27;20050;-68
2023/10/18 11:49:19;;;;;;;7.32;1.60;;;10.90;99.90;;;;;;5088494;28;20068;-69
2023/10/18 11:51:50;;;;;;;1.13;1.02;;;11.00;99.90;;;;;;5095027;27;20089;-66
2023/10/18 11:54:35;;;;;;;2.25;1.42;;;11.00;99.90;;;;;;5091782;28;20124;-68
2023/10/18 11:57:02;;;;;;;1.15;1.05;;;11.10;99.90;;;;;;5088814;28;20038;-69
2023/10/18 11:59:28;;;;;;;2.15;1.13;;;11.10;99.90;;;;;;5088436;28;20067;-68
2023/10/18 12:01:59;;;;;;;1.45;1.00;;;11.10;99.90;;;;;;5092126;28;20066;-70
2023/10/18 12:04:28;;;;;;;1.52;1.13;;;11.20;99.90;;;;;;5091827;28;20083;-68
2023/10/18 12:06:56;;;;;;;0.95;0.95;;;11.20;99.90;;;;;;5126938;27;20483;-69
2023/10/18 12:11:51;;;;;;;2.67;1.60;;;11.30;99.90;;;;;;5113378;27;20108;-67
2023/10/18 12:14:18;;;;;;;1.88;1.75;;;11.40;99.90;;;;;;5087587;28;20066;-66
2023/10/18 12:16:44;;;;;;;2.30;1.00;;;11.40;99.90;;;;;;5082298;28;20074;-66
2023/10/18 12:19:10;;;;;;;3.30;2.05;;;11.40;99.90;;;;;;5078764;28;20443;-67
2023/10/18 12:21:39;;;;;;;3.47;1.25;;;11.40;99.90;;;;;;5093391;28;20051;-67
2023/10/18 12:24:07;;;;;;;3.40;1.17;;;11.40;99.90;;;;;;5080935;28;20046;-66
2023/10/18 12:26:37;;;;;;;1.05;0.63;;;11.40;99.90;;;;;;5118070;27;20478;-66
2023/10/18 12:29:05;;;;;;;4.53;1.45;;;11.40;99.90;;;;;;5077756;28;20043;-68
2023/10/18 12:31:39;;;;;;;1.15;1.13;;;11.50;99.90;;;;;;5089994;28;20046;-68
2023/10/18 12:34:05;;;;;;;5.20;0.98;;;11.50;99.90;;;;;;5084263;28;20047;-66
2023/10/18 12:36:38;;;;;;;1.52;1.42;;;11.50;99.90;;;;;;5084017;28;20488;-68
2023/10/18 12:39:09;;;;;;;6.70;2.05;;;11.50;99.90;;;;;;5085084;28;20074;-65
2023/10/18 12:41:41;;;;;;;3.22;1.02;;;11.50;99.90;;;;;;5085308;28;20046;-67
2023/10/18 12:44:19;;;;;;;4.13;0.80;;;11.50;99.90;;;;;;5083724;27;20138;-68
2023/10/18 12:46:45;;;;;;;0.88;0.85;;;11.60;99.90;;;;;;5082178;28;20492;-65
2023/10/18 12:49:12;;;;;;;3.75;0.95;;;11.50;99.90;;;;;;5065694;28;20050;-66
2023/10/18 12:51:42;;;;;;;2.40;1.70;;;11.50;99.90;;;;;;5081822;28;20039;-66
2023/10/18 12:54:10;;;;;;;1.00;0.90;;;11.50;99.90;;;;;;5082438;28;20177;-67
2023/10/18 12:56:38;;;;;;;1.08;1.02;;;11.50;99.90;;;;;;5114019;27;20043;-67
2023/10/18 13:04:08;;;;;;;1.77;1.35;;;11.60;99.90;;;;;;5091098;27;20043;-67
2023/10/18 13:06:44;;;;;;;0.65;0.63;;;11.60;99.90;;;;;;5090247;28;20039;-67
2023/10/18 13:09:19;;;;;;;4.63;1.58;;;11.60;99.90;;;;;;5084377;28;20058;-67
2023/10/18 13:14:23;;;;;;;1.45;0.70;;;11.60;99.90;;;;;;5079264;27;20582;-68
2023/10/18 13:16:51;;;;;;;4.22;1.25;;;11.70;99.90;;;;;;5116656;27;20401;-68
2023/10/18 13:19:19;;;;;;;2.40;1.58;;;11.70;99.90;;;;;;5080808;27;20040;-69
2023/10/18 13:21:47;;;;;;;2.47;1.00;;;11.80;99.90;;;;;;5080941;28;20054;-69
2023/10/18 13:24:17;;;;;;;1.75;0.80;;;11.90;99.90;;;;;;5085286;28;20039;-68
2023/10/18 13:26:53;;;;;;;1.08;0.95;;;11.90;99.90;;;;;;5111190;27;20051;-67
2023/10/18 13:31:50;;;;;;;1.70;1.00;;;11.90;99.90;;;;;;5081488;28;20494;-69
2023/10/18 13:34:19;;;;;;;2.45;0.60;;;11.90;99.90;;;;;;5078190;28;20105;-68
2023/10/18 13:36:50;;;;;;;0.73;0.73;;;11.90;99.90;;;;;;5080281;28;20152;-68
2023/10/18 13:39:17;;;;;;;1.67;0.93;;;11.90;99.90;;;;;;5082719;28;20144;-67
2023/10/18 13:41:47;;;;;;;1.77;1.27;;;11.90;99.90;;;;;;5078776;28;20130;-67
2023/10/18 13:44:20;;;;;;;0.52;0.52;;;11.80;99.90;;;;;;5083212;28;20035;-69
2023/10/18 13:46:55;;;;;;;2.40;1.13;;;11.80;99.90;;;;;;5067878;28;20043;-67
2023/10/18 13:49:25;;;;;;;1.30;1.20;;;11.80;99.90;;;;;;5115906;27;20065;-68
2023/10/18 13:51:51;;;;;;;1.02;0.93;;;11.80;99.90;;;;;;5082150;28;20039;-67
2023/10/18 13:54:18;;;;;;;1.15;1.05;;;11.70;99.90;;;;;;5080425;28;20047;-68
2023/10/18 13:56:43;;;;;;;4.00;0.88;;;11.70;99.90;;;;;;5119356;27;20059;-69
2023/10/18 13:59:13;;;;;;;1.95;1.33;;;11.70;99.90;;;;;;5078892;28;20083;-67
2023/10/18 14:01:40;;;;;;;2.50;1.35;;;11.70;99.90;;;;;;5081917;28;20035;-67
2023/10/18 14:04:08;;;;;;;1.85;0.70;;;11.60;99.90;;;;;;5078526;28;20096;-67
2023/10/18 14:06:36;;;;;;;3.53;1.00;;;11.60;99.90;;;;;;5083366;28;20039;-66